Time;durP1;ratioP1;P1;durP2;ratioP2;P2;SDS_P1;SDS_P2;PMS_P1;PMS_P2;Temp;Humidity;BMP_temperature;BMP_pressure;BME280_temperature;BME280_humidity;BME280_pressure;Samples;Min_cycle;Max_cycle;Signal;HPM_P1;HPM_P2
2020/12/08 00:00:22;;;;;;;16.73;10.70;;;7.10;61.20;;;;;;5010881;28;20204;-42
2020/12/08 00:02:48;;;;;;;13.53;10.47;;;6.80;62.20;;;;;;5007883;28;20216;-42
2020/12/08 00:05:16;;;;;;;12.47;10.03;;;6.60;63.30;;;;;;5008023;28;20581;-42
2020/12/08 00:07:41;;;;;;;13.00;9.73;;;6.70;63.80;;;;;;5003593;28;20449;-42
2020/12/08 00:10:07;;;;;;;14.80;10.13;;;6.80;63.40;;;;;;5010113;28;20446;-42
2020/12/08 00:12:33;;;;;;;15.10;10.10;;;6.80;63.10;;;;;;5011345;28;20198;-42
2020/12/08 00:14:58;;;;;;;13.80;10.40;;;6.70;63.20;;;;;;5008022;28;20230;-42
2020/12/08 00:17:24;;;;;;;15.80;10.40;;;6.60;63.80;;;;;;5009585;28;20281;-42
2020/12/08 00:19:49;;;;;;;15.60;11.43;;;6.60;64.00;;;;;;5009718;28;20202;-42
2020/12/08 00:22:15;;;;;;;16.13;11.30;;;6.70;63.90;;;;;;5009946;28;20285;-42
2020/12/08 00:24:41;;;;;;;14.70;10.80;;;6.70;63.70;;;;;;5010594;28;20198;-42
2020/12/08 00:27:11;;;;;;;16.27;11.27;;;6.40;64.00;;;;;;5012555;28;20201;-42
2020/12/08 00:29:37;;;;;;;14.27;10.40;;;6.30;64.80;;;;;;5007622;28;20198;-42
2020/12/08 00:32:07;;;;;;;18.60;11.63;;;6.20;65.10;;;;;;5010982;28;20433;-43
2020/12/08 00:34:33;;;;;;;17.83;11.90;;;6.40;65.40;;;;;;5010267;28;20488;-42
2020/12/08 00:36:59;;;;;;;13.70;11.00;;;6.60;64.70;;;;;;5008888;28;20575;-42
2020/12/08 00:39:25;;;;;;;15.70;11.90;;;6.50;64.50;;;;;;5004066;28;20533;-42
2020/12/08 00:41:50;;;;;;;14.97;10.27;;;6.60;64.40;;;;;;5004781;28;20194;-42
2020/12/08 00:44:16;;;;;;;19.23;11.67;;;6.60;64.50;;;;;;5010606;28;20198;-42
2020/12/08 00:46:46;;;;;;;15.10;10.80;;;6.60;64.40;;;;;;5009260;28;20210;-42
2020/12/08 00:49:12;;;;;;;17.03;12.00;;;6.60;64.40;;;;;;5004513;28;20245;-42
2020/12/08 00:51:37;;;;;;;14.87;11.30;;;6.70;64.00;;;;;;5005653;28;20932;-42
2020/12/08 00:54:03;;;;;;;17.30;11.80;;;6.70;64.20;;;;;;5008323;28;20261;-42
2020/12/08 00:56:31;;;;;;;13.77;10.50;;;6.80;64.20;;;;;;5011136;28;20562;-42
2020/12/08 00:58:57;;;;;;;14.50;10.77;;;6.80;63.70;;;;;;5006218;28;20202;-42
2020/12/08 01:01:23;;;;;;;16.43;11.00;;;7.00;63.20;;;;;;5002009;28;20928;-42
2020/12/08 01:03:48;;;;;;;15.70;10.83;;;7.00;63.10;;;;;;5006647;28;20452;-43
2020/12/08 01:06:14;;;;;;;15.80;11.37;;;7.20;62.70;;;;;;5007336;28;20445;-42
2020/12/08 01:08:40;;;;;;;14.13;10.20;;;7.20;62.40;;;;;;5003874;28;20217;-43
2020/12/08 01:11:05;;;;;;;16.90;12.07;;;7.10;62.40;;;;;;5003293;28;21041;-42
2020/12/08 01:13:34;;;;;;;16.33;11.63;;;7.00;62.80;;;;;;5011809;28;20229;-42
2020/12/08 01:16:03;;;;;;;16.03;11.10;;;7.00;62.80;;;;;;5010255;28;20197;-42
2020/12/08 01:18:30;;;;;;;17.87;13.00;;;7.00;63.10;;;;;;5007777;28;21002;-42
2020/12/08 01:20:56;;;;;;;16.60;12.17;;;6.90;62.90;;;;;;5013876;28;20441;-42
2020/12/08 01:23:23;;;;;;;15.23;11.60;;;6.90;63.40;;;;;;5007150;28;20511;-42
2020/12/08 01:25:49;;;;;;;16.87;11.80;;;6.90;63.40;;;;;;5006047;28;20660;-43
2020/12/08 01:28:17;;;;;;;15.87;11.80;;;7.00;63.40;;;;;;5010412;28;20469;-42
2020/12/08 01:30:47;;;;;;;17.00;12.40;;;6.90;63.50;;;;;;5008985;28;20727;-42
2020/12/08 01:33:12;;;;;;;16.57;13.10;;;6.90;63.20;;;;;;5007650;28;20472;-42
2020/12/08 01:35:38;;;;;;;16.03;11.50;;;7.00;63.10;;;;;;5007027;28;21245;-42
2020/12/08 01:38:04;;;;;;;18.97;13.10;;;7.20;62.70;;;;;;5010102;28;20198;-42
2020/12/08 01:40:30;;;;;;;18.43;13.87;;;7.20;63.00;;;;;;5008185;28;20248;-42
2020/12/08 01:42:56;;;;;;;16.67;11.50;;;7.40;62.00;;;;;;5006289;28;20217;-42
2020/12/08 01:45:21;;;;;;;16.20;12.00;;;7.40;61.40;;;;;;5007560;28;20465;-42
2020/12/08 01:47:47;;;;;;;21.33;13.50;;;7.40;61.10;;;;;;5006433;28;20201;-42
2020/12/08 01:50:13;;;;;;;16.23;12.33;;;7.40;62.20;;;;;;5006446;28;20230;-45
2020/12/08 01:52:39;;;;;;;15.70;11.70;;;7.40;61.40;;;;;;5008021;28;20794;-42
2020/12/08 01:55:06;;;;;;;20.37;14.50;;;7.40;61.20;;;;;;5010631;28;20489;-42
2020/12/08 01:57:32;;;;;;;17.70;12.70;;;7.30;61.40;;;;;;5007549;28;20450;-42
2020/12/08 01:59:58;;;;;;;16.57;12.30;;;7.30;61.50;;;;;;5005832;28;20457;-42
2020/12/08 02:02:24;;;;;;;18.20;13.67;;;7.30;61.10;;;;;;5002272;28;20444;-42
2020/12/08 02:04:50;;;;;;;17.93;13.03;;;7.50;60.90;;;;;;5005433;28;20202;-42
2020/12/08 02:07:16;;;;;;;18.20;12.70;;;7.30;60.80;;;;;;5007800;28;20506;-42
2020/12/08 02:09:41;;;;;;;17.60;12.30;;;7.20;61.30;;;;;;5009088;28;20190;-42
2020/12/08 02:12:07;;;;;;;14.60;11.10;;;7.30;61.70;;;;;;5003088;28;20194;-43
2020/12/08 02:14:33;;;;;;;17.07;12.57;;;7.40;61.00;;;;;;5005191;28;20312;-42
2020/12/08 02:16:58;;;;;;;16.70;11.50;;;7.50;60.90;;;;;;5006891;28;20208;-42
2020/12/08 02:19:24;;;;;;;17.90;12.77;;;7.60;60.40;;;;;;5010231;28;20189;-42
2020/12/08 02:21:49;;;;;;;18.20;12.03;;;7.50;60.00;;;;;;5006992;28;20198;-42
2020/12/08 02:24:17;;;;;;;18.20;12.40;;;7.50;60.00;;;;;;5009703;28;20200;-43
2020/12/08 02:26:43;;;;;;;18.30;11.80;;;7.50;60.30;;;;;;5006157;28;20213;-43
2020/12/08 02:29:10;;;;;;;19.03;12.47;;;7.40;60.40;;;;;;5008764;28;20437;-42
2020/12/08 02:31:36;;;;;;;17.60;13.17;;;7.50;60.20;;;;;;5005628;28;20519;-42
2020/12/08 02:34:01;;;;;;;15.70;11.80;;;7.50;60.30;;;;;;4993462;28;20485;-43
2020/12/08 02:36:27;;;;;;;18.20;12.80;;;7.40;59.90;;;;;;5008539;28;20190;-42
2020/12/08 02:38:52;;;;;;;20.60;13.70;;;7.60;59.70;;;;;;5009667;28;20271;-42
2020/12/08 02:41:18;;;;;;;17.13;12.70;;;7.50;59.60;;;;;;5008567;28;20281;-43
2020/12/08 02:43:44;;;;;;;16.90;13.03;;;7.50;59.80;;;;;;5006772;28;20197;-42
2020/12/08 02:46:12;;;;;;;17.57;13.10;;;7.30;60.00;;;;;;5008514;28;20232;-42
2020/12/08 02:48:38;;;;;;;20.40;13.13;;;7.20;60.20;;;;;;5008558;28;20260;-42
2020/12/08 02:51:03;;;;;;;19.27;12.77;;;7.30;60.30;;;;;;5002054;28;20441;-42
2020/12/08 02:53:29;;;;;;;17.50;12.40;;;7.30;60.10;;;;;;5007569;28;20217;-42
2020/12/08 02:55:54;;;;;;;19.90;12.63;;;7.30;59.70;;;;;;5005400;28;20190;-42
2020/12/08 02:58:20;;;;;;;19.30;13.03;;;7.20;60.00;;;;;;5006268;28;20723;-42
2020/12/08 03:00:45;;;;;;;19.13;13.73;;;7.10;60.20;;;;;;5008574;28;20194;-42
2020/12/08 03:03:11;;;;;;;18.60;12.73;;;7.30;60.30;;;;;;5006585;28;20217;-43
2020/12/08 03:05:36;;;;;;;18.97;12.50;;;7.40;59.80;;;;;;5001881;28;20206;-42
2020/12/08 03:08:02;;;;;;;23.50;14.97;;;7.60;59.50;;;;;;5006613;28;20202;-42
2020/12/08 03:10:28;;;;;;;21.50;14.37;;;7.70;59.00;;;;;;5003188;28;20194;-42
2020/12/08 03:12:53;;;;;;;20.10;13.93;;;7.70;58.90;;;;;;5007944;28;20205;-42
2020/12/08 03:15:19;;;;;;;19.10;12.40;;;7.60;58.90;;;;;;5006111;28;20719;-42
2020/12/08 03:17:44;;;;;;;16.50;12.13;;;7.70;58.80;;;;;;5004165;28;20224;-43
2020/12/08 03:20:10;;;;;;;19.50;13.80;;;7.70;58.80;;;;;;5002985;28;20544;-42
2020/12/08 03:22:36;;;;;;;22.53;14.17;;;7.70;58.70;;;;;;5008992;28;20194;-42
2020/12/08 03:25:03;;;;;;;19.27;13.07;;;7.50;59.00;;;;;;5005724;28;20441;-42
2020/12/08 03:27:28;;;;;;;18.57;13.60;;;7.40;59.40;;;;;;5007159;28;20440;-42
2020/12/08 03:29:54;;;;;;;21.43;13.63;;;7.30;59.70;;;;;;5008582;28;21298;-42
2020/12/08 03:32:20;;;;;;;20.20;13.93;;;7.20;59.80;;;;;;5008463;28;20198;-43
2020/12/08 03:34:45;;;;;;;19.40;13.50;;;7.10;60.30;;;;;;5009185;28;20230;-42
2020/12/08 03:37:11;;;;;;;21.40;14.10;;;7.00;60.70;;;;;;5009814;28;20189;-42
2020/12/08 03:39:36;;;;;;;18.67;12.80;;;7.00;60.50;;;;;;5013052;28;20193;-42
2020/12/08 03:42:03;;;;;;;19.63;14.50;;;7.20;60.60;;;;;;5005467;28;20205;-42
2020/12/08 03:44:29;;;;;;;18.33;12.67;;;7.40;60.20;;;;;;5011323;28;20198;-42
2020/12/08 03:46:59;;;;;;;20.43;13.90;;;7.50;59.70;;;;;;5010253;28;21195;-42
2020/12/08 03:49:27;;;;;;;17.67;12.53;;;7.60;59.20;;;;;;5010645;28;20488;-43
2020/12/08 03:51:54;;;;;;;17.40;12.30;;;7.70;58.80;;;;;;5009779;28;20944;-42
2020/12/08 03:54:20;;;;;;;18.50;13.77;;;7.70;58.50;;;;;;5006193;28;20603;-42
2020/12/08 03:56:46;;;;;;;22.60;13.50;;;7.80;58.60;;;;;;5010151;28;20870;-42
2020/12/08 03:59:17;;;;;;;21.03;13.67;;;7.80;58.40;;;;;;5019913;28;20190;-42
2020/12/08 04:01:46;;;;;;;19.63;13.73;;;7.80;58.30;;;;;;5009468;28;20453;-42
2020/12/08 04:04:11;;;;;;;19.30;12.87;;;7.80;58.20;;;;;;5011694;28;21018;-42
2020/12/08 04:06:37;;;;;;;20.20;13.37;;;7.80;58.20;;;;;;5008272;28;20445;-42
2020/12/08 04:09:03;;;;;;;19.50;13.23;;;7.80;58.40;;;;;;5004720;28;20572;-42
2020/12/08 04:11:28;;;;;;;18.10;13.13;;;7.80;58.40;;;;;;5006639;28;20201;-42
2020/12/08 04:13:54;;;;;;;18.80;13.43;;;7.80;58.40;;;;;;5011869;28;20222;-42
2020/12/08 04:16:20;;;;;;;22.10;13.70;;;7.80;58.40;;;;;;5010355;28;20269;-42
2020/12/08 04:18:45;;;;;;;21.40;13.23;;;7.70;58.30;;;;;;5010453;28;20198;-43
2020/12/08 04:21:11;;;;;;;21.07;14.03;;;7.70;58.60;;;;;;5009674;28;20642;-42
2020/12/08 04:23:36;;;;;;;19.57;13.07;;;7.80;58.50;;;;;;5005887;28;20202;-42
2020/12/08 04:26:02;;;;;;;20.67;14.27;;;7.80;58.30;;;;;;5007807;28;20194;-42
2020/12/08 04:28:28;;;;;;;22.23;15.90;;;7.90;58.10;;;;;;5010130;28;20190;-42
2020/12/08 04:30:53;;;;;;;18.00;12.73;;;7.90;57.80;;;;;;5009977;28;21000;-42
2020/12/08 04:33:19;;;;;;;19.57;13.50;;;7.90;57.60;;;;;;5010038;28;20190;-42
2020/12/08 04:35:45;;;;;;;20.00;13.10;;;7.90;57.40;;;;;;5009342;28;20566;-42
2020/12/08 04:38:10;;;;;;;19.63;14.13;;;7.90;57.30;;;;;;5007974;28;20198;-42
2020/12/08 04:40:37;;;;;;;20.77;14.00;;;7.90;57.30;;;;;;5009700;28;20709;-42
2020/12/08 04:43:05;;;;;;;19.33;13.70;;;7.90;57.20;;;;;;5011122;28;20278;-42
2020/12/08 04:45:31;;;;;;;19.80;14.20;;;7.80;57.30;;;;;;5010513;28;20441;-42
2020/12/08 04:48:05;;;;;;;18.30;13.27;;;7.80;57.40;;;;;;5014093;28;20475;-42
2020/12/08 04:50:31;;;;;;;20.40;13.37;;;7.80;57.50;;;;;;5004951;28;20555;-43
2020/12/08 04:52:56;;;;;;;18.03;12.77;;;7.80;57.50;;;;;;5009900;28;20536;-42
2020/12/08 04:55:22;;;;;;;18.50;13.07;;;7.80;57.50;;;;;;5010825;28;20218;-43
2020/12/08 04:57:49;;;;;;;20.17;14.20;;;7.80;57.50;;;;;;5007200;28;20194;-42
2020/12/08 05:00:14;;;;;;;25.03;14.70;;;7.90;57.50;;;;;;5008779;28;20190;-42
2020/12/08 05:02:48;;;;;;;19.80;14.13;;;7.90;57.60;;;;;;5007409;28;20499;-42
2020/12/08 05:05:15;;;;;;;19.30;13.77;;;7.80;57.60;;;;;;5008473;28;20197;-42
2020/12/08 05:07:40;;;;;;;22.20;14.50;;;7.80;57.70;;;;;;5005620;28;20448;-42
2020/12/08 05:10:06;;;;;;;17.57;12.90;;;7.80;57.60;;;;;;5011601;28;20425;-42
2020/12/08 05:12:32;;;;;;;20.23;14.37;;;7.80;58.00;;;;;;5009079;28;20281;-42
2020/12/08 05:14:57;;;;;;;19.57;13.80;;;7.90;57.30;;;;;;5009919;28;20222;-42
2020/12/08 05:17:24;;;;;;;20.50;13.63;;;7.80;57.10;;;;;;5006117;28;20198;-42
2020/12/08 05:20:10;;;;;;;22.90;14.80;;;7.80;57.20;;;;;;5008992;28;20617;-42
2020/12/08 05:22:36;;;;;;;22.37;15.30;;;7.70;57.30;;;;;;5003190;28;21025;-42
2020/12/08 05:25:17;;;;;;;22.93;15.70;;;7.60;57.70;;;;;;5003616;28;20524;-42
2020/12/08 05:27:45;;;;;;;21.63;15.23;;;7.60;58.00;;;;;;5007811;28;20706;-42
2020/12/08 05:30:11;;;;;;;23.50;15.57;;;7.50;58.10;;;;;;5001444;28;20441;-43
2020/12/08 05:32:41;;;;;;;22.60;15.10;;;7.50;58.20;;;;;;5007491;28;20441;-42
2020/12/08 05:35:11;;;;;;;25.00;15.27;;;7.50;58.20;;;;;;5008400;28;20518;-42
2020/12/08 05:37:42;;;;;;;27.67;13.67;;;7.50;58.40;;;;;;5008099;28;20524;-43
2020/12/08 05:40:11;;;;;;;18.97;11.73;;;7.50;61.20;;;;;;5002059;28;20764;-43
2020/12/08 05:42:45;;;;;;;22.93;16.57;;;7.90;62.90;;;;;;5008912;28;20524;-43
2020/12/08 05:45:20;;;;;;;19.80;13.80;;;8.10;61.40;;;;;;5001095;28;20459;-43
2020/12/08 05:47:45;;;;;;;20.10;13.40;;;8.30;60.00;;;;;;5017480;28;20955;-43
2020/12/08 05:50:11;;;;;;;24.90;14.00;;;8.20;60.30;;;;;;5006824;28;20468;-43
2020/12/08 05:52:40;;;;;;;19.70;13.00;;;8.50;59.10;;;;;;5007538;28;20202;-43
2020/12/08 05:55:20;;;;;;;22.70;14.00;;;8.30;57.80;;;;;;5006587;28;20230;-43
2020/12/08 05:57:46;;;;;;;20.53;14.90;;;8.60;58.20;;;;;;5008454;28;20448;-43
2020/12/08 06:00:22;;;;;;;21.60;15.27;;;8.40;57.40;;;;;;5004242;28;20441;-43
2020/12/08 06:02:48;;;;;;;23.13;16.43;;;8.30;57.50;;;;;;5006288;28;20516;-43
2020/12/08 06:05:34;;;;;;;21.00;14.77;;;8.60;57.20;;;;;;5010843;28;20525;-43
2020/12/08 06:08:21;;;;;;;21.07;14.80;;;8.80;56.70;;;;;;5009897;28;20455;-43
2020/12/08 06:10:48;;;;;;;23.43;14.70;;;8.60;56.40;;;;;;5010260;28;20808;-43
2020/12/08 06:13:27;;;;;;;21.43;14.10;;;8.50;56.80;;;;;;5008893;28;20527;-43
2020/12/08 06:15:54;;;;;;;24.37;16.47;;;8.50;57.00;;;;;;5009771;28;20558;-43
2020/12/08 06:18:33;;;;;;;20.20;15.90;;;8.70;56.60;;;;;;5010790;28;20433;-43
2020/12/08 06:21:01;;;;;;;24.00;16.70;;;9.00;56.30;;;;;;5009602;28;20808;-41
2020/12/08 06:23:26;;;;;;;20.37;14.17;;;9.10;55.60;;;;;;5011580;28;20444;-41
2020/12/08 06:26:10;;;;;;;21.90;15.17;;;9.20;55.40;;;;;;5010130;28;20479;-41
2020/12/08 06:28:36;;;;;;;22.20;15.87;;;9.20;55.20;;;;;;5008361;28;20200;-41
2020/12/08 06:31:06;;;;;;;21.47;14.80;;;8.90;54.60;;;;;;5010620;28;20432;-42
2020/12/08 06:33:50;;;;;;;19.87;14.23;;;8.80;55.90;;;;;;5015139;28;20204;-41
2020/12/08 06:36:24;;;;;;;19.97;13.40;;;9.00;55.40;;;;;;5026454;28;20807;-41
2020/12/08 06:39:06;;;;;;;20.23;14.93;;;8.80;54.90;;;;;;5013673;28;20476;-42
2020/12/08 06:41:37;;;;;;;20.83;14.33;;;8.70;55.70;;;;;;5002373;28;20444;-42
2020/12/08 06:44:11;;;;;;;19.60;13.63;;;8.90;55.30;;;;;;5025859;28;20436;-42
2020/12/08 06:46:37;;;;;;;22.80;15.93;;;8.50;55.20;;;;;;5019697;28;20795;-42
2020/12/08 06:49:08;;;;;;;21.40;15.30;;;8.10;56.40;;;;;;5010740;28;20457;-42
2020/12/08 06:51:35;;;;;;;23.40;15.60;;;8.40;56.40;;;;;;5010466;28;20615;-42
2020/12/08 06:54:14;;;;;;;18.50;13.70;;;8.30;55.80;;;;;;5010546;28;20472;-42
2020/12/08 06:56:41;;;;;;;21.70;14.63;;;8.40;56.20;;;;;;5010417;28;20436;-42
2020/12/08 06:59:06;;;;;;;21.90;15.13;;;8.10;55.70;;;;;;5010988;28;20421;-42
2020/12/08 07:01:32;;;;;;;19.00;13.80;;;8.00;56.70;;;;;;5010376;28;20436;-42
2020/12/08 07:03:58;;;;;;;20.57;14.50;;;8.30;56.80;;;;;;5017032;28;20627;-42
2020/12/08 07:06:26;;;;;;;21.27;15.30;;;8.10;55.70;;;;;;5030052;28;20189;-42
2020/12/08 07:08:52;;;;;;;20.70;15.00;;;8.20;56.10;;;;;;5030092;28;20824;-42
2020/12/08 07:11:22;;;;;;;20.63;14.57;;;8.30;56.30;;;;;;5033969;28;20432;-42
2020/12/08 07:13:58;;;;;;;23.13;15.27;;;8.00;56.00;;;;;;5027052;28;20490;-42
2020/12/08 07:16:25;;;;;;;23.70;15.00;;;8.10;56.60;;;;;;5024717;28;20881;-42
2020/12/08 07:18:51;;;;;;;21.20;15.10;;;8.40;56.10;;;;;;5034371;28;20432;-43
2020/12/08 07:21:18;;;;;;;24.20;15.20;;;8.20;55.60;;;;;;5033790;28;20431;-42
2020/12/08 07:23:44;;;;;;;21.93;15.40;;;8.40;55.60;;;;;;5034201;28;20435;-42
2020/12/08 07:26:10;;;;;;;21.17;14.53;;;8.50;55.60;;;;;;5031335;28;20816;-42
2020/12/08 07:28:35;;;;;;;22.07;15.10;;;8.50;55.30;;;;;;5015162;28;20281;-42
2020/12/08 07:31:01;;;;;;;18.83;14.23;;;8.70;55.10;;;;;;5013683;28;20198;-42
2020/12/08 07:33:31;;;;;;;22.10;15.07;;;8.60;54.70;;;;;;5013941;28;20212;-42
2020/12/08 07:35:57;;;;;;;19.57;14.13;;;8.60;54.90;;;;;;5011793;28;20626;-42
2020/12/08 07:38:23;;;;;;;23.30;15.03;;;8.50;55.10;;;;;;5013813;28;20433;-42
2020/12/08 07:40:49;;;;;;;19.93;14.43;;;8.60;54.80;;;;;;5017009;28;20669;-42
2020/12/08 07:43:14;;;;;;;18.83;14.20;;;8.80;54.90;;;;;;5014067;28;20198;-42
2020/12/08 07:45:45;;;;;;;21.70;15.10;;;9.10;55.00;;;;;;5015261;28;20204;-42
2020/12/08 07:48:17;;;;;;;25.03;16.27;;;9.80;53.00;;;;;;5027548;28;20198;-42
2020/12/08 07:50:42;;;;;;;22.50;16.70;;;10.30;50.70;;;;;;5015646;28;21132;-42
2020/12/08 07:53:09;;;;;;;22.40;15.60;;;10.70;49.50;;;;;;5033657;28;20543;-42
2020/12/08 07:55:43;;;;;;;20.23;14.67;;;11.10;48.90;;;;;;5032895;28;20254;-42
2020/12/08 07:58:09;;;;;;;21.27;14.27;;;11.20;48.30;;;;;;5033757;28;20416;-42
2020/12/08 08:00:36;;;;;;;20.73;14.77;;;10.90;48.70;;;;;;5025205;28;20918;-42
2020/12/08 08:03:02;;;;;;;20.93;15.30;;;10.70;49.20;;;;;;5031696;28;20447;-46
2020/12/08 08:05:29;;;;;;;22.23;16.00;;;10.50;49.70;;;;;;5030119;28;20502;-42
2020/12/08 08:07:55;;;;;;;21.63;15.73;;;10.30;49.90;;;;;;5025189;28;20880;-42
2020/12/08 08:10:20;;;;;;;18.93;14.87;;;10.00;50.30;;;;;;5033029;28;20420;-42
2020/12/08 08:12:46;;;;;;;21.93;16.40;;;10.00;50.50;;;;;;5032860;28;20190;-42
2020/12/08 08:15:12;;;;;;;22.47;14.77;;;9.70;51.20;;;;;;5032874;28;20629;-43
2020/12/08 08:17:38;;;;;;;19.00;14.07;;;9.40;52.60;;;;;;5015770;28;20256;-42
2020/12/08 08:20:06;;;;;;;20.00;15.40;;;8.80;53.30;;;;;;5012453;28;20282;-42
2020/12/08 08:22:31;;;;;;;21.40;14.70;;;8.50;54.50;;;;;;5012580;28;20209;-42
2020/12/08 08:24:57;;;;;;;19.60;14.50;;;8.40;55.00;;;;;;5010966;28;20500;-42
2020/12/08 08:27:23;;;;;;;20.70;14.83;;;8.40;54.90;;;;;;5011122;28;20717;-42
2020/12/08 08:29:48;;;;;;;22.70;16.00;;;8.20;55.00;;;;;;5008981;28;20205;-42
2020/12/08 08:32:14;;;;;;;20.67;14.07;;;8.30;55.10;;;;;;5011933;28;20201;-42
2020/12/08 08:34:39;;;;;;;22.17;14.77;;;8.50;55.20;;;;;;5011517;28;20230;-42
2020/12/08 08:37:05;;;;;;;19.10;12.90;;;8.90;55.00;;;;;;5010615;28;20233;-42
2020/12/08 08:39:31;;;;;;;20.30;14.10;;;9.20;54.20;;;;;;5012254;28;20201;-42
2020/12/08 08:41:57;;;;;;;22.63;16.27;;;9.40;53.60;;;;;;5011529;28;20302;-42
2020/12/08 08:44:22;;;;;;;19.20;13.53;;;9.60;53.30;;;;;;5011264;28;20197;-42
2020/12/08 08:46:48;;;;;;;18.77;13.90;;;9.50;53.00;;;;;;5004562;28;20443;-42
2020/12/08 08:49:14;;;;;;;23.90;15.13;;;9.50;52.80;;;;;;5011046;28;20480;-42
2020/12/08 08:51:45;;;;;;;23.43;14.50;;;9.70;53.10;;;;;;5011392;28;20280;-42
2020/12/08 08:54:12;;;;;;;20.87;15.10;;;10.00;51.90;;;;;;5010789;28;20480;-42
2020/12/08 08:56:38;;;;;;;20.77;15.47;;;10.00;51.20;;;;;;5010310;28;20475;-42
2020/12/08 08:59:04;;;;;;;22.97;14.97;;;10.10;51.50;;;;;;5011740;28;20461;-42
2020/12/08 09:01:30;;;;;;;20.70;15.13;;;10.00;50.90;;;;;;5012081;28;20236;-42
2020/12/08 09:03:55;;;;;;;20.40;14.63;;;9.50;52.20;;;;;;5010870;28;20870;-42
2020/12/08 09:06:21;;;;;;;20.37;14.70;;;9.20;53.00;;;;;;5011050;28;20566;-42
2020/12/08 09:08:46;;;;;;;19.03;13.80;;;8.90;53.90;;;;;;5010657;28;20194;-42
2020/12/08 09:11:12;;;;;;;19.60;13.60;;;8.90;54.80;;;;;;5009022;28;20657;-42
2020/12/08 09:13:38;;;;;;;18.80;14.40;;;9.10;54.30;;;;;;5012380;28;21026;-42
2020/12/08 09:16:04;;;;;;;18.33;14.23;;;9.40;53.60;;;;;;5009847;28;20205;-42
2020/12/08 09:18:30;;;;;;;17.00;12.20;;;9.70;52.80;;;;;;5010808;28;20221;-42
2020/12/08 09:20:56;;;;;;;19.73;13.60;;;9.90;52.50;;;;;;5008954;28;20792;-42
2020/12/08 09:23:22;;;;;;;19.17;12.90;;;9.70;52.40;;;;;;5010678;28;20432;-42
2020/12/08 09:25:49;;;;;;;21.25;15.10;;;9.60;52.60;;;;;;4999588;28;20438;-41
2020/12/08 09:28:15;;;;;;;17.90;13.73;;;10.00;52.00;;;;;;4997549;28;20195;-42
2020/12/08 09:30:41;;;;;;;18.93;13.77;;;10.30;51.20;;;;;;5005423;28;20445;-42
2020/12/08 09:33:06;;;;;;;16.67;12.93;;;10.20;50.20;;;;;;5009055;28;20198;-41
2020/12/08 09:35:32;;;;;;;19.67;13.20;;;10.60;50.80;;;;;;5010347;28;20234;-42
2020/12/08 09:37:58;;;;;;;16.40;12.90;;;11.00;50.20;;;;;;5005641;28;20190;-42
2020/12/08 09:40:24;;;;;;;17.30;12.50;;;11.20;49.40;;;;;;5008587;28;20205;-42
2020/12/08 09:42:50;;;;;;;19.60;13.73;;;11.40;48.80;;;;;;5001237;28;20483;-42
2020/12/08 09:45:15;;;;;;;16.40;13.17;;;11.60;48.00;;;;;;5011770;28;20222;-42
2020/12/08 09:47:41;;;;;;;17.93;13.30;;;11.60;47.80;;;;;;5006113;28;20225;-42
2020/12/08 09:50:09;;;;;;;19.97;13.90;;;11.50;47.60;;;;;;5008681;28;20638;-42
2020/12/08 09:52:35;;;;;;;18.33;13.43;;;11.60;47.20;;;;;;5006998;28;20198;-42
2020/12/08 09:55:01;;;;;;;20.07;14.40;;;11.40;46.90;;;;;;5009053;28;20487;-42
2020/12/08 09:57:26;;;;;;;16.47;12.23;;;11.40;47.40;;;;;;5007722;28;20190;-42
2020/12/08 09:59:52;;;;;;;14.93;12.43;;;11.50;47.70;;;;;;5002337;28;20246;-42
2020/12/08 10:02:19;;;;;;;18.07;12.87;;;11.60;47.40;;;;;;5007888;28;20199;-42
2020/12/08 10:04:45;;;;;;;16.60;13.40;;;11.90;47.00;;;;;;5009618;28;20193;-43
2020/12/08 10:07:15;;;;;;;16.93;13.90;;;11.80;46.80;;;;;;5007318;28;20440;-42
2020/12/08 10:09:47;;;;;;;17.00;13.27;;;11.90;46.70;;;;;;5016710;28;20441;-41
2020/12/08 10:12:16;;;;;;;17.20;13.70;;;12.10;46.10;;;;;;5009332;28;20529;-41
2020/12/08 10:14:43;;;;;;;17.53;13.67;;;12.20;45.60;;;;;;5000179;28;20492;-41
2020/12/08 10:17:13;;;;;;;17.00;12.93;;;12.20;46.30;;;;;;5003918;28;20436;-41
2020/12/08 10:19:40;;;;;;;16.57;14.30;;;12.20;45.50;;;;;;5009945;28;20436;-42
2020/12/08 10:22:06;;;;;;;14.23;11.90;;;12.40;45.60;;;;;;5006407;28;20441;-41
2020/12/08 10:24:32;;;;;;;17.37;12.80;;;12.50;45.00;;;;;;5002078;28;20433;-41
2020/12/08 10:26:57;;;;;;;17.50;12.90;;;12.60;45.10;;;;;;5010002;28;20432;-42
2020/12/08 10:29:23;;;;;;;15.90;13.33;;;12.60;44.30;;;;;;5004705;28;20451;-42
2020/12/08 10:31:52;;;;;;;18.33;13.67;;;12.30;44.90;;;;;;5009037;28;20205;-41
2020/12/08 10:34:19;;;;;;;15.80;12.13;;;12.50;45.00;;;;;;5004886;28;20238;-41
2020/12/08 10:36:47;;;;;;;15.83;12.80;;;12.50;45.00;;;;;;5009434;28;20453;-41
2020/12/08 10:39:13;;;;;;;17.43;14.20;;;12.10;44.60;;;;;;5009047;28;20433;-42
2020/12/08 10:41:39;;;;;;;17.47;13.40;;;11.70;45.80;;;;;;5007676;28;21280;-41
2020/12/08 10:44:07;;;;;;;17.70;13.53;;;12.10;45.90;;;;;;5005249;28;20798;-41
2020/12/08 10:46:37;;;;;;;16.30;13.57;;;12.40;45.70;;;;;;5012866;28;20260;-42
2020/12/08 10:49:07;;;;;;;15.50;12.83;;;12.40;43.80;;;;;;5009116;28;20495;-42
2020/12/08 10:51:33;;;;;;;15.37;12.27;;;12.70;44.10;;;;;;5011659;28;20440;-42
2020/12/08 10:53:58;;;;;;;14.07;11.90;;;13.00;43.80;;;;;;5011997;28;20863;-42
2020/12/08 10:56:25;;;;;;;17.70;13.37;;;13.30;43.10;;;;;;5011554;28;20194;-42
2020/12/08 10:58:52;;;;;;;16.13;12.90;;;13.80;42.10;;;;;;5012322;28;20194;-42
2020/12/08 11:01:23;;;;;;;14.87;12.03;;;13.80;41.80;;;;;;5007653;28;20454;-41
2020/12/08 11:03:49;;;;;;;17.10;12.83;;;14.00;41.80;;;;;;5010562;28;20548;-42
2020/12/08 11:06:22;;;;;;;16.53;13.97;;;14.40;41.00;;;;;;5012332;28;20561;-42
2020/12/08 11:08:49;;;;;;;17.80;14.37;;;14.30;40.40;;;;;;5014348;28;20811;-41
2020/12/08 11:11:23;;;;;;;16.57;12.30;;;13.80;40.80;;;;;;5013279;28;20433;-42
2020/12/08 11:13:49;;;;;;;15.20;11.73;;;13.70;41.50;;;;;;5003740;28;20494;-42
2020/12/08 11:16:15;;;;;;;16.27;13.63;;;13.80;41.70;;;;;;5011511;28;20803;-42
2020/12/08 11:18:41;;;;;;;17.00;13.30;;;13.40;41.30;;;;;;5011865;28;20437;-41
2020/12/08 11:21:06;;;;;;;19.40;15.40;;;12.60;41.90;;;;;;5012736;28;20612;-41
2020/12/08 11:23:32;;;;;;;15.90;12.70;;;12.00;43.30;;;;;;5013255;28;20206;-41
2020/12/08 11:25:58;;;;;;;16.40;12.10;;;11.60;44.40;;;;;;5019269;28;20198;-41
2020/12/08 11:28:24;;;;;;;15.77;12.10;;;11.60;45.20;;;;;;5012287;28;20339;-42
2020/12/08 11:30:49;;;;;;;17.10;13.43;;;11.60;45.00;;;;;;5011607;28;20201;-41
2020/12/08 11:33:15;;;;;;;16.50;11.80;;;11.70;45.00;;;;;;5013287;28;20197;-41
2020/12/08 11:35:41;;;;;;;15.67;12.37;;;11.90;45.00;;;;;;5009192;28;20226;-41
2020/12/08 11:38:06;;;;;;;16.03;13.57;;;12.10;44.60;;;;;;5012700;28;20490;-41
2020/12/08 11:40:32;;;;;;;17.20;13.67;;;12.20;44.40;;;;;;5012446;28;20286;-41
2020/12/08 11:42:58;;;;;;;18.33;14.20;;;12.10;45.00;;;;;;5011600;28;20200;-42
2020/12/08 11:45:23;;;;;;;19.63;14.30;;;12.10;45.50;;;;;;5011746;28;20198;-41
2020/12/08 11:47:49;;;;;;;19.90;14.80;;;12.30;45.10;;;;;;5014237;28;20198;-41
2020/12/08 11:50:15;;;;;;;17.97;15.57;;;12.30;44.90;;;;;;5012491;28;20291;-41
2020/12/08 11:52:40;;;;;;;20.13;14.00;;;12.40;44.80;;;;;;5011444;28;20194;-41
2020/12/08 11:55:06;;;;;;;19.70;14.83;;;12.30;45.00;;;;;;5015320;28;20233;-41
2020/12/08 11:57:35;;;;;;;20.87;15.80;;;12.50;45.00;;;;;;5008050;28;20206;-41
2020/12/08 12:00:05;;;;;;;20.67;15.57;;;12.50;44.70;;;;;;5013083;28;20475;-41
2020/12/08 12:02:30;;;;;;;18.93;14.73;;;12.60;44.60;;;;;;5012250;28;20532;-41
2020/12/08 12:04:56;;;;;;;18.30;14.20;;;12.60;44.60;;;;;;5012238;28;20515;-41
2020/12/08 12:07:21;;;;;;;19.63;14.53;;;12.60;44.70;;;;;;5011090;28;20193;-41
2020/12/08 12:09:47;;;;;;;19.17;14.80;;;12.60;45.10;;;;;;5010658;28;20205;-41
2020/12/08 12:12:13;;;;;;;17.90;14.10;;;12.80;45.30;;;;;;5011855;28;20192;-41
2020/12/08 12:14:38;;;;;;;17.93;14.70;;;12.90;45.00;;;;;;5010992;28;20757;-41
2020/12/08 12:17:04;;;;;;;16.90;14.20;;;13.00;44.30;;;;;;5012302;28;20193;-41
2020/12/08 12:19:31;;;;;;;18.73;13.83;;;13.10;44.20;;;;;;5011718;28;20295;-41
2020/12/08 12:21:57;;;;;;;19.50;14.87;;;13.10;43.90;;;;;;5011508;28;20289;-41
2020/12/08 12:24:23;;;;;;;18.93;13.80;;;13.10;44.10;;;;;;5012663;28;20508;-41
2020/12/08 12:26:48;;;;;;;21.23;15.17;;;13.00;44.20;;;;;;5010586;28;20201;-41
2020/12/08 12:29:14;;;;;;;18.97;15.83;;;13.00;44.20;;;;;;5011126;28;20190;-41
2020/12/08 12:31:46;;;;;;;18.80;14.93;;;13.10;44.20;;;;;;5010881;28;20205;-41